N1261P KDAL-KDAL

Flight info

Callsign N1261P
Flight time 0h 4m
Altitude 1500
Route KDAL ZZZZ
Aircraft SR22/L-V/N

Departure

Time 2026-04-29 22:01
Airport Dallas Love Field (KDAL)

Arrival

Time 2026-04-29 22:05
Airport Dallas Love Field (KDAL)
Time Latitude Longitude Altitude Speed Heading
2026-04-29 21:56 32.83761 -96.84444 483 ft 0 kts 45°
2026-04-29 21:59 32.83763 -96.84435 482 ft 6 kts 99°
2026-04-29 21:59 32.83726 -96.84442 481 ft 2 kts 218°
2026-04-29 21:59 32.83611 -96.84400 483 ft 31 kts 128°
2026-04-29 22:00 32.83450 -96.84305 486 ft 19 kts 228°
2026-04-29 22:00 32.83440 -96.84327 486 ft 0 kts 243°
2026-04-29 22:00 32.83469 -96.84418 485 ft 33 kts 315°
2026-04-29 22:00 32.83782 -96.84785 549 ft 82 kts 323°
2026-04-29 22:01 32.84183 -96.85283 865 ft 86 kts 315°
2026-04-29 22:01 32.84570 -96.85833 1209 ft 84 kts 335°
2026-04-29 22:01 32.85062 -96.86245 1514 ft 90 kts 322°
2026-04-29 22:01 32.84986 -96.87042 1575 ft 129 kts 224°
2026-04-29 22:02 32.84276 -96.87580 1780 ft 113 kts 223°
2026-04-29 22:02 32.83571 -96.88027 1540 ft 112 kts 208°
2026-04-29 22:02 32.83099 -96.88291 1416 ft 108 kts 200°
2026-04-29 22:02 32.82270 -96.87902 1317 ft 108 kts 127°
2026-04-29 22:03 32.81950 -96.87473 1348 ft 105 kts 124°
2026-04-29 22:03 32.81495 -96.86803 1430 ft 104 kts 119°
2026-04-29 22:03 32.81086 -96.86099 1473 ft 97 kts 109°
2026-04-29 22:03 32.81166 -96.85447 1339 ft 79 kts 43°
2026-04-29 22:04 32.81531 -96.84994 1158 ft 79 kts 44°
2026-04-29 22:04 32.81909 -96.84521 1041 ft 72 kts 40°
2026-04-29 22:04 32.82442 -96.84028 836 ft 70 kts 30°
2026-04-29 22:04 32.82747 -96.83891 751 ft 75 kts 12°
2026-04-29 22:05 32.83234 -96.84162 579 ft 80 kts 326°
2026-04-29 22:05 32.83600 -96.84595 486 ft 65 kts 323°
2026-04-29 22:05 32.83775 -96.84639 482 ft 0 kts 53°
2026-04-29 22:06 32.83764 -96.84577 482 ft 17 kts 139°
2026-04-29 22:06 32.83801 -96.84480 481 ft 0 kts 43°